createdAt,value
2018-07-28T00:00:28.416Z,0.00
2018-07-28T00:01:28.413Z,0.00
2018-07-28T00:02:28.452Z,0.00
2018-07-28T00:03:28.517Z,0.00
2018-07-28T00:04:28.712Z,0.00
2018-07-28T00:05:28.566Z,0.00
2018-07-28T00:06:28.484Z,0.00
2018-07-28T00:07:28.521Z,0.00
2018-07-28T00:08:28.552Z,0.00
2018-07-28T00:09:28.685Z,0.00
2018-07-28T00:10:28.573Z,0.00
2018-07-28T00:11:28.696Z,0.00
2018-07-28T00:12:28.608Z,0.00
2018-07-28T00:13:28.678Z,0.00
2018-07-28T00:14:28.634Z,0.00
2018-07-28T00:15:28.641Z,0.00
2018-07-28T00:16:28.642Z,0.00
2018-07-28T00:17:28.687Z,0.00
2018-07-28T00:18:28.742Z,0.00
2018-07-28T00:19:28.822Z,0.00
2018-07-28T00:20:28.734Z,0.00
2018-07-28T00:21:28.767Z,0.00
2018-07-28T00:22:28.758Z,0.00
2018-07-28T00:23:28.777Z,0.00
2018-07-28T00:24:28.831Z,0.00
2018-07-28T00:25:28.841Z,0.00
2018-07-28T00:26:28.808Z,0.00
2018-07-28T00:27:28.860Z,0.00
2018-07-28T00:28:29.379Z,0.00
2018-07-28T00:29:28.887Z,0.00
2018-07-28T00:30:28.917Z,0.00
2018-07-28T00:31:28.981Z,0.00
2018-07-28T00:32:28.925Z,0.00
2018-07-28T00:33:29.054Z,0.00
2018-07-28T00:34:28.962Z,0.00
2018-07-28T00:35:29.018Z,0.00
2018-07-28T00:36:29.030Z,0.00
2018-07-28T00:37:28.972Z,0.00
2018-07-28T00:38:29.101Z,0.00
2018-07-28T00:39:29.042Z,0.00
2018-07-28T00:40:29.065Z,0.00
2018-07-28T00:41:29.077Z,0.00
2018-07-28T00:42:29.068Z,0.00
2018-07-28T00:43:29.076Z,0.00
2018-07-28T00:44:29.499Z,0.00
2018-07-28T00:45:29.110Z,0.00
2018-07-28T00:46:29.190Z,0.00
2018-07-28T00:47:29.137Z,0.00
2018-07-28T00:48:29.254Z,0.00
2018-07-28T00:49:29.156Z,0.00
2018-07-28T00:50:29.197Z,0.00
2018-07-28T00:51:29.256Z,0.00
2018-07-28T00:52:29.380Z,0.00
2018-07-28T00:53:29.239Z,0.00
2018-07-28T00:54:29.281Z,0.00
2018-07-28T00:55:29.283Z,0.00
2018-07-28T00:56:29.274Z,0.00
2018-07-28T00:57:29.338Z,0.00
2018-07-28T00:58:29.294Z,0.00
2018-07-28T00:59:29.357Z,0.00
2018-07-28T01:00:29.353Z,0.00
2018-07-28T01:01:29.356Z,0.00
2018-07-28T01:02:29.383Z,0.00
2018-07-28T01:03:29.364Z,0.00
2018-07-28T01:04:29.389Z,0.00
2018-07-28T01:05:29.434Z,0.00
2018-07-28T01:06:29.468Z,0.00
2018-07-28T01:07:29.440Z,0.00
2018-07-28T01:08:29.445Z,0.00
2018-07-28T01:09:29.499Z,0.00
2018-07-28T01:10:29.488Z,0.00
2018-07-28T01:11:29.566Z,0.00
2018-07-28T01:12:29.504Z,0.00
2018-07-28T01:13:29.537Z,0.00
2018-07-28T01:14:29.553Z,0.00
2018-07-28T01:15:29.586Z,0.00
2018-07-28T01:16:29.620Z,0.00
2018-07-28T01:17:29.629Z,0.00
2018-07-28T01:18:29.602Z,0.00
2018-07-28T01:19:29.621Z,0.00
2018-07-28T01:20:29.644Z,0.00
2018-07-28T01:21:29.662Z,0.00
2018-07-28T01:22:29.698Z,0.00
2018-07-28T01:23:29.725Z,0.00
2018-07-28T01:24:29.699Z,0.00
2018-07-28T01:25:29.740Z,0.00
2018-07-28T01:26:29.741Z,0.00
2018-07-28T01:27:29.737Z,0.00
2018-07-28T01:28:29.749Z,0.00
2018-07-28T01:29:29.760Z,0.00
2018-07-28T01:30:29.825Z,0.00
2018-07-28T01:31:29.827Z,0.00
2018-07-28T01:32:29.852Z,0.00
2018-07-28T01:33:29.825Z,0.00
2018-07-28T01:34:30.035Z,0.00
2018-07-28T01:35:29.906Z,0.00
2018-07-28T01:36:29.872Z,0.00
2018-07-28T01:37:29.920Z,0.00
2018-07-28T01:38:30.017Z,0.00
2018-07-28T01:39:29.913Z,0.00
2018-07-28T01:40:29.938Z,0.00
2018-07-28T01:41:30.140Z,0.00
2018-07-28T01:42:30.002Z,0.00
2018-07-28T01:43:30.070Z,0.00
2018-07-28T01:44:30.015Z,0.00
2018-07-28T01:45:29.997Z,0.00
2018-07-28T01:46:30.070Z,0.00
2018-07-28T01:47:30.113Z,0.00
2018-07-28T01:48:30.073Z,0.00
2018-07-28T01:49:30.139Z,0.00
2018-07-28T01:50:30.139Z,0.00
2018-07-28T01:51:30.156Z,0.00
2018-07-28T01:52:30.183Z,0.00
2018-07-28T01:53:30.108Z,0.00
2018-07-28T01:54:30.193Z,0.00
2018-07-28T01:55:30.277Z,0.00
2018-07-28T01:56:30.250Z,0.00
2018-07-28T01:57:30.227Z,0.00
2018-07-28T01:58:30.190Z,0.00
2018-07-28T01:59:30.223Z,0.00
2018-07-28T02:00:30.226Z,0.00
2018-07-28T02:01:30.290Z,0.00
2018-07-28T02:02:30.354Z,0.00
2018-07-28T02:03:30.274Z,0.00
2018-07-28T02:04:30.307Z,0.00
2018-07-28T02:05:30.415Z,0.00
2018-07-28T02:06:30.365Z,0.00
2018-07-28T02:07:30.325Z,0.00
2018-07-28T02:08:30.364Z,0.00
2018-07-28T02:09:30.392Z,0.00
2018-07-28T02:10:30.394Z,0.00
2018-07-28T02:11:30.435Z,0.00
2018-07-28T02:12:30.616Z,0.00
2018-07-28T02:13:30.423Z,0.00
2018-07-28T02:14:30.452Z,0.00
2018-07-28T02:15:30.519Z,0.00
2018-07-28T02:16:30.545Z,0.00
2018-07-28T02:17:30.489Z,0.00
2018-07-28T02:18:30.507Z,0.00
2018-07-28T02:19:30.571Z,0.00
2018-07-28T02:20:30.517Z,0.00
2018-07-28T02:21:30.559Z,0.00
2018-07-28T02:22:30.561Z,0.00
2018-07-28T02:23:30.767Z,0.00
2018-07-28T02:24:30.585Z,0.00
2018-07-28T02:25:30.601Z,0.00
2018-07-28T02:26:30.606Z,0.00
2018-07-28T02:27:30.663Z,0.00
2018-07-28T02:28:30.710Z,0.00
2018-07-28T02:29:30.730Z,0.00
2018-07-28T02:30:30.715Z,0.00
2018-07-28T02:31:30.703Z,0.00
2018-07-28T02:32:30.713Z,0.00
2018-07-28T02:33:30.821Z,0.00
2018-07-28T02:34:30.811Z,0.00
2018-07-28T02:35:30.747Z,0.00
2018-07-28T02:36:30.767Z,0.00
2018-07-28T02:37:30.863Z,0.00
2018-07-28T02:38:30.807Z,0.00
2018-07-28T02:39:30.841Z,0.00
2018-07-28T02:40:30.978Z,0.00
2018-07-28T02:41:30.854Z,0.00
2018-07-28T02:42:30.876Z,0.00
2018-07-28T02:43:30.883Z,0.00
2018-07-28T02:44:31.597Z,0.00
2018-07-28T02:45:30.946Z,0.00
2018-07-28T02:46:30.918Z,0.00
2018-07-28T02:47:30.924Z,0.00
2018-07-28T02:48:30.945Z,0.00
2018-07-28T02:49:31.008Z,0.00
2018-07-28T02:50:30.978Z,0.00
2018-07-28T02:51:31.063Z,0.00
2018-07-28T02:52:30.987Z,0.00
2018-07-28T02:53:31.028Z,0.00
2018-07-28T02:54:31.024Z,0.00
2018-07-28T02:55:31.062Z,0.00
2018-07-28T02:56:31.073Z,0.00
2018-07-28T02:57:31.066Z,0.00
2018-07-28T02:58:31.079Z,0.00
2018-07-28T02:59:31.114Z,0.00
2018-07-28T03:00:31.103Z,0.00
2018-07-28T03:01:31.177Z,0.00
2018-07-28T03:02:31.129Z,0.00
2018-07-28T03:03:31.142Z,0.00
2018-07-28T03:04:31.178Z,0.00
2018-07-28T03:05:31.173Z,0.00
2018-07-28T03:06:31.263Z,0.00
2018-07-28T03:07:31.221Z,0.00
2018-07-28T03:08:31.258Z,0.00
2018-07-28T03:09:31.249Z,0.00
2018-07-28T03:10:31.270Z,0.00
2018-07-28T03:11:31.313Z,0.00
2018-07-28T03:12:31.308Z,0.00
2018-07-28T03:13:31.308Z,0.00
2018-07-28T03:14:31.374Z,5.63
2018-07-28T03:15:31.334Z,5.63
2018-07-28T03:16:31.348Z,5.63
2018-07-28T03:17:31.361Z,5.63
2018-07-28T03:18:31.381Z,5.63
2018-07-28T03:19:31.430Z,5.63
2018-07-28T03:20:31.416Z,5.63
2018-07-28T03:21:31.417Z,5.63
2018-07-28T03:22:31.456Z,5.63
2018-07-28T03:23:31.445Z,11.25
2018-07-28T03:24:31.491Z,11.25
2018-07-28T03:25:31.477Z,11.25
2018-07-28T03:26:31.511Z,11.25
2018-07-28T03:27:31.577Z,11.25
2018-07-28T03:28:31.517Z,11.25
2018-07-28T03:29:31.750Z,16.88
2018-07-28T03:30:31.576Z,16.88
2018-07-28T03:31:31.601Z,16.88
2018-07-28T03:32:31.622Z,16.88
2018-07-28T03:33:31.597Z,16.88
2018-07-28T03:34:31.616Z,16.88
2018-07-28T03:35:31.626Z,22.50
2018-07-28T03:36:31.646Z,22.50
2018-07-28T03:37:31.685Z,22.50
2018-07-28T03:38:31.677Z,22.50
2018-07-28T03:39:31.695Z,22.50
2018-07-28T03:40:31.710Z,28.13
2018-07-28T03:41:31.719Z,28.13
2018-07-28T03:42:31.775Z,28.13
2018-07-28T03:43:32.234Z,28.13
2018-07-28T03:44:31.756Z,33.75
2018-07-28T03:45:31.787Z,33.75
2018-07-28T03:46:31.851Z,39.38
2018-07-28T03:47:31.835Z,45.00
2018-07-28T03:48:31.829Z,50.63
2018-07-28T03:49:31.839Z,50.63
2018-07-28T03:50:31.831Z,50.63
2018-07-28T03:51:31.995Z,56.25
2018-07-28T03:52:31.904Z,56.25
2018-07-28T03:53:31.893Z,56.25
2018-07-28T03:54:31.921Z,56.25
2018-07-28T03:55:31.995Z,61.88
2018-07-28T03:56:32.017Z,61.88
2018-07-28T03:57:31.950Z,67.50
2018-07-28T03:58:31.962Z,67.50
2018-07-28T03:59:31.991Z,73.13
2018-07-28T04:00:32.127Z,73.13
2018-07-28T04:01:32.009Z,73.13
2018-07-28T04:02:32.042Z,78.75
2018-07-28T04:03:32.041Z,78.75
2018-07-28T04:04:32.068Z,84.38
2018-07-28T04:05:32.141Z,84.38
2018-07-28T04:06:32.126Z,90.00
2018-07-28T04:07:32.128Z,90.00
2018-07-28T04:08:32.137Z,95.63
2018-07-28T04:09:32.135Z,95.63
2018-07-28T04:10:32.147Z,95.63
2018-07-28T04:11:32.240Z,101.25
2018-07-28T04:12:32.170Z,101.25
2018-07-28T04:13:32.177Z,106.88
2018-07-28T04:14:32.187Z,106.88
2018-07-28T04:15:32.230Z,112.50
2018-07-28T04:16:32.246Z,112.50
2018-07-28T04:17:32.317Z,112.50
2018-07-28T04:18:32.240Z,118.13
2018-07-28T04:19:32.253Z,118.13
2018-07-28T04:20:32.298Z,123.75
2018-07-28T04:21:32.353Z,129.38
2018-07-28T04:22:32.340Z,129.38
2018-07-28T04:23:32.460Z,135.00
2018-07-28T04:24:32.330Z,135.00
2018-07-28T04:25:32.390Z,135.00
2018-07-28T04:26:32.404Z,135.00
2018-07-28T04:27:32.492Z,135.00
2018-07-28T04:28:32.498Z,140.63
2018-07-28T04:29:32.513Z,146.25
2018-07-28T04:30:32.481Z,146.25
2018-07-28T04:31:32.446Z,151.88
2018-07-28T04:32:32.684Z,151.88
2018-07-28T04:33:32.513Z,157.50
2018-07-28T04:34:32.483Z,157.50
2018-07-28T04:35:32.577Z,163.13
2018-07-28T04:36:32.504Z,168.75
2018-07-28T04:37:32.525Z,174.38
2018-07-28T04:38:32.591Z,174.38
2018-07-28T04:39:32.592Z,180.00
2018-07-28T04:40:32.672Z,185.63
2018-07-28T04:41:32.594Z,185.63
2018-07-28T04:42:32.602Z,191.25
2018-07-28T04:43:32.689Z,191.25
2018-07-28T04:44:32.671Z,196.88
2018-07-28T04:45:32.658Z,202.50
2018-07-28T04:46:32.734Z,208.13
2018-07-28T04:47:32.786Z,213.75
2018-07-28T04:48:32.732Z,213.75
2018-07-28T04:49:32.703Z,219.38
2018-07-28T04:50:33.178Z,225.00
2018-07-28T04:51:32.753Z,230.63
2018-07-28T04:52:32.789Z,236.25
2018-07-28T04:53:32.833Z,230.63
2018-07-28T04:54:32.793Z,225.00
2018-07-28T04:55:32.802Z,225.00
2018-07-28T04:56:32.844Z,202.50
2018-07-28T04:57:32.965Z,151.88
2018-07-28T04:58:32.905Z,135.00
2018-07-28T04:59:32.893Z,213.75
2018-07-28T05:00:32.928Z,275.63
2018-07-28T05:01:32.896Z,286.88
2018-07-28T05:02:32.902Z,298.13
2018-07-28T05:03:33.008Z,303.75
2018-07-28T05:04:32.968Z,309.38
2018-07-28T05:05:32.976Z,309.38
2018-07-28T05:06:33.031Z,309.38
2018-07-28T05:07:33.171Z,298.13
2018-07-28T05:08:33.062Z,298.13
2018-07-28T05:09:33.028Z,337.50
2018-07-28T05:10:33.046Z,343.13
2018-07-28T05:11:33.096Z,348.75
2018-07-28T05:12:33.099Z,354.38
2018-07-28T05:13:33.114Z,354.38
2018-07-28T05:14:33.209Z,365.63
2018-07-28T05:15:33.121Z,365.63
2018-07-28T05:16:33.194Z,376.88
2018-07-28T05:17:33.188Z,388.13
2018-07-28T05:18:33.169Z,393.75
2018-07-28T05:19:33.187Z,405.00
2018-07-28T05:20:33.195Z,410.63
2018-07-28T05:21:33.333Z,410.63
2018-07-28T05:22:33.255Z,421.88
2018-07-28T05:23:33.282Z,427.50
2018-07-28T05:24:33.264Z,433.13
2018-07-28T05:25:33.271Z,433.13
2018-07-28T05:26:33.321Z,444.38
2018-07-28T05:27:33.352Z,444.38
2018-07-28T05:28:33.444Z,450.00
2018-07-28T05:29:33.366Z,455.63
2018-07-28T05:30:33.377Z,461.25
2018-07-28T05:31:33.525Z,466.88
2018-07-28T05:32:33.405Z,472.50
2018-07-28T05:33:33.477Z,478.13
2018-07-28T05:34:33.450Z,483.75
2018-07-28T05:35:33.464Z,489.38
2018-07-28T05:36:33.517Z,500.63
2018-07-28T05:37:33.503Z,500.63
2018-07-28T05:38:34.353Z,506.25
2018-07-28T05:39:33.677Z,506.25
2018-07-28T05:40:33.671Z,517.50
2018-07-28T05:41:33.627Z,517.50
2018-07-28T05:42:33.624Z,528.75
2018-07-28T05:43:33.587Z,534.38
2018-07-28T05:44:33.681Z,540.00
2018-07-28T05:45:33.662Z,545.63
2018-07-28T05:46:33.652Z,551.25
2018-07-28T05:47:33.638Z,551.25
2018-07-28T05:48:33.699Z,556.88
2018-07-28T05:49:33.683Z,562.50
2018-07-28T05:50:33.903Z,562.50
2018-07-28T05:51:33.727Z,562.50
2018-07-28T05:52:33.996Z,562.50
2018-07-28T05:53:33.816Z,573.75
2018-07-28T05:54:33.795Z,573.75
2018-07-28T05:55:34.035Z,585.00
2018-07-28T05:56:33.810Z,585.00
2018-07-28T05:57:33.922Z,590.63
2018-07-28T05:58:33.849Z,585.00
2018-07-28T05:59:33.867Z,590.63
2018-07-28T06:00:33.950Z,590.63
2018-07-28T06:01:33.996Z,573.75
2018-07-28T06:02:34.138Z,568.13
2018-07-28T06:03:33.946Z,568.13
2018-07-28T06:04:33.974Z,568.13
2018-07-28T06:05:34.216Z,568.13
2018-07-28T06:06:34.005Z,568.13
2018-07-28T06:07:34.040Z,568.13
2018-07-28T06:08:34.051Z,562.50
2018-07-28T06:09:34.059Z,562.50
2018-07-28T06:10:34.112Z,562.50
2018-07-28T06:11:34.085Z,556.88
2018-07-28T06:12:34.158Z,556.88
2018-07-28T06:13:34.140Z,551.25
2018-07-28T06:14:34.130Z,551.25
2018-07-28T06:15:34.157Z,545.63
2018-07-28T06:16:34.179Z,545.63
2018-07-28T06:17:34.246Z,540.00
2018-07-28T06:18:34.251Z,540.00
2018-07-28T06:19:34.241Z,540.00
2018-07-28T06:20:34.329Z,545.63
2018-07-28T06:21:34.287Z,534.38
2018-07-28T06:22:34.294Z,534.38
2018-07-28T06:23:34.357Z,534.38
2018-07-28T06:24:34.382Z,534.38
2018-07-28T06:25:34.369Z,534.38
2018-07-28T06:26:34.384Z,528.75
2018-07-28T06:27:34.397Z,528.75
2018-07-28T06:28:34.425Z,523.13
2018-07-28T06:29:34.509Z,495.00
2018-07-28T06:30:34.458Z,500.63
2018-07-28T06:31:34.516Z,489.38
2018-07-28T06:32:35.019Z,483.75
2018-07-28T06:33:34.518Z,472.50
2018-07-28T06:34:34.736Z,461.25
2018-07-28T06:35:34.544Z,461.25
2018-07-28T06:36:34.600Z,455.63
2018-07-28T06:37:34.620Z,450.00
2018-07-28T06:38:34.657Z,444.38
2018-07-28T06:39:34.690Z,438.75
2018-07-28T06:40:34.683Z,433.13
2018-07-28T06:41:34.675Z,421.88
2018-07-28T06:42:34.726Z,416.25
2018-07-28T06:43:34.706Z,410.63
2018-07-28T06:44:34.730Z,405.00
2018-07-28T06:45:34.784Z,399.38
2018-07-28T06:46:34.812Z,393.75
2018-07-28T06:47:34.796Z,371.25
2018-07-28T06:48:34.789Z,382.50
2018-07-28T06:49:34.808Z,371.25
2018-07-28T06:50:35.056Z,360.00
2018-07-28T06:51:34.845Z,348.75
2018-07-28T06:52:34.886Z,337.50
2018-07-28T06:53:35.233Z,320.63
2018-07-28T06:54:34.966Z,320.63
2018-07-28T06:55:34.917Z,303.75
2018-07-28T06:56:35.051Z,286.88
2018-07-28T06:57:34.990Z,270.00
2018-07-28T06:58:34.993Z,247.50
2018-07-28T06:59:35.008Z,225.00
2018-07-28T07:00:35.009Z,208.13
2018-07-28T07:01:35.043Z,196.88
2018-07-28T07:02:35.054Z,196.88
2018-07-28T07:03:35.126Z,185.63
2018-07-28T07:04:35.366Z,180.00
2018-07-28T07:05:35.247Z,180.00
2018-07-28T07:06:35.121Z,180.00
2018-07-28T07:07:35.157Z,180.00
2018-07-28T07:08:35.215Z,180.00
2018-07-28T07:09:35.229Z,174.38
2018-07-28T07:10:35.234Z,174.38
2018-07-28T07:11:35.266Z,174.38
2018-07-28T07:12:35.243Z,174.38
2018-07-28T07:13:35.269Z,168.75
2018-07-28T07:14:35.314Z,168.75
2018-07-28T07:15:35.438Z,168.75
2018-07-28T07:16:35.407Z,168.75
2018-07-28T07:17:35.368Z,168.75
2018-07-28T07:18:35.349Z,168.75
2018-07-28T07:19:35.438Z,168.75
2018-07-28T07:20:35.404Z,168.75
2018-07-28T07:21:35.472Z,168.75
2018-07-28T07:22:35.441Z,168.75
2018-07-28T07:23:35.493Z,163.13
2018-07-28T07:24:35.480Z,163.13
2018-07-28T07:25:35.489Z,163.13
2018-07-28T07:26:35.514Z,168.75
2018-07-28T07:27:35.581Z,163.13
2018-07-28T07:28:35.605Z,163.13
2018-07-28T07:29:35.616Z,163.13
2018-07-28T07:30:35.591Z,163.13
2018-07-28T07:31:35.691Z,163.13
2018-07-28T07:32:35.653Z,163.13
2018-07-28T07:33:35.725Z,163.13
2018-07-28T07:34:35.680Z,163.13
2018-07-28T07:35:35.745Z,157.50
2018-07-28T07:36:35.697Z,157.50
2018-07-28T07:37:35.711Z,163.13
2018-07-28T07:38:35.755Z,157.50
2018-07-28T07:39:35.759Z,157.50
2018-07-28T07:40:35.865Z,157.50
2018-07-28T07:41:35.807Z,151.88
2018-07-28T07:42:35.808Z,151.88
2018-07-28T07:43:35.875Z,151.88
2018-07-28T07:44:35.888Z,151.88
2018-07-28T07:45:35.851Z,140.63
2018-07-28T07:46:35.958Z,151.88
2018-07-28T07:47:35.968Z,151.88
2018-07-28T07:48:35.908Z,151.88
2018-07-28T07:49:36.010Z,151.88
2018-07-28T07:50:35.971Z,151.88
2018-07-28T07:51:35.966Z,151.88
2018-07-28T07:52:36.016Z,151.88
2018-07-28T07:53:36.173Z,157.50
2018-07-28T07:54:36.047Z,151.88
2018-07-28T07:55:36.121Z,151.88
2018-07-28T07:56:36.060Z,151.88
2018-07-28T07:57:36.127Z,157.50
2018-07-28T07:58:36.103Z,151.88
2018-07-28T07:59:36.266Z,151.88
2018-07-28T08:00:36.136Z,151.88
2018-07-28T08:01:36.132Z,151.88
2018-07-28T08:02:36.247Z,151.88
2018-07-28T08:03:36.194Z,157.50
2018-07-28T08:04:36.393Z,157.50
2018-07-28T08:05:38.167Z,157.50
2018-07-28T08:06:36.290Z,157.50
2018-07-28T08:07:36.297Z,163.13
2018-07-28T08:08:36.382Z,157.50
2018-07-28T08:09:36.574Z,157.50
2018-07-28T08:10:36.339Z,157.50
2018-07-28T08:11:36.354Z,157.50
2018-07-28T08:12:36.412Z,157.50
2018-07-28T08:13:36.418Z,157.50
2018-07-28T08:14:36.408Z,163.13
2018-07-28T08:15:36.410Z,157.50
2018-07-28T08:16:36.425Z,163.13
2018-07-28T08:17:36.456Z,163.13
2018-07-28T08:18:36.463Z,163.13
2018-07-28T08:19:36.516Z,157.50
2018-07-28T08:20:36.588Z,157.50
2018-07-28T08:21:36.560Z,157.50
2018-07-28T08:22:36.584Z,157.50
2018-07-28T08:23:36.554Z,151.88
2018-07-28T08:24:36.661Z,151.88
2018-07-28T08:25:36.565Z,151.88
2018-07-28T08:26:36.683Z,146.25
2018-07-28T08:27:36.639Z,146.25
2018-07-28T08:28:36.661Z,146.25
2018-07-28T08:29:36.657Z,146.25
2018-07-28T08:30:36.738Z,146.25
2018-07-28T08:31:36.703Z,140.63
2018-07-28T08:32:36.747Z,146.25
2018-07-28T08:33:36.751Z,140.63
2018-07-28T08:34:36.756Z,146.25
2018-07-28T08:35:36.740Z,146.25
2018-07-28T08:36:36.740Z,146.25
2018-07-28T08:37:36.852Z,146.25
2018-07-28T08:38:36.848Z,146.25
2018-07-28T08:39:36.814Z,146.25
2018-07-28T08:40:36.831Z,146.25
2018-07-28T08:41:36.865Z,146.25
2018-07-28T08:42:36.905Z,146.25
2018-07-28T08:43:36.922Z,146.25
2018-07-28T08:44:36.900Z,146.25
2018-07-28T08:45:36.969Z,146.25
2018-07-28T08:46:36.932Z,146.25
2018-07-28T08:47:36.975Z,151.88
2018-07-28T08:48:37.080Z,151.88
2018-07-28T08:49:37.072Z,151.88
2018-07-28T08:50:37.045Z,151.88
2018-07-28T08:51:37.185Z,157.50
2018-07-28T08:52:37.235Z,157.50
2018-07-28T08:53:37.172Z,157.50
2018-07-28T08:54:37.144Z,157.50
2018-07-28T08:55:37.224Z,163.13
2018-07-28T08:56:37.096Z,163.13
2018-07-28T08:57:37.223Z,163.13
2018-07-28T08:58:37.174Z,157.50
2018-07-28T08:59:37.286Z,163.13
2018-07-28T09:00:37.221Z,163.13
2018-07-28T09:01:37.287Z,157.50
2018-07-28T09:02:37.606Z,157.50
2018-07-28T09:03:37.231Z,163.13
2018-07-28T09:04:37.240Z,157.50
2018-07-28T09:05:37.303Z,163.13
2018-07-28T09:06:37.327Z,163.13
2018-07-28T09:07:37.299Z,163.13
2018-07-28T09:08:37.319Z,168.75
2018-07-28T09:09:37.343Z,168.75
2018-07-28T09:10:37.344Z,174.38
2018-07-28T09:11:37.534Z,174.38
2018-07-28T09:12:38.014Z,180.00
2018-07-28T09:13:37.395Z,185.63
2018-07-28T09:14:37.409Z,191.25
2018-07-28T09:15:37.421Z,191.25
2018-07-28T09:16:37.444Z,202.50
2018-07-28T09:17:37.497Z,202.50
2018-07-28T09:18:37.487Z,208.13
2018-07-28T09:19:37.499Z,213.75
2018-07-28T09:20:37.712Z,225.00
2018-07-28T09:21:37.575Z,230.63
2018-07-28T09:22:37.726Z,236.25
2018-07-28T09:23:38.639Z,241.88
2018-07-28T09:24:37.646Z,241.88
2018-07-28T09:25:37.600Z,241.88
2018-07-28T09:26:37.753Z,241.88
2018-07-28T09:27:37.637Z,241.88
2018-07-28T09:28:38.291Z,241.88
2018-07-28T09:29:37.686Z,241.88
2018-07-28T09:30:37.728Z,236.25
2018-07-28T09:31:37.709Z,236.25
2018-07-28T09:32:37.781Z,236.25
2018-07-28T09:33:37.737Z,236.25
2018-07-28T09:34:37.802Z,230.63
2018-07-28T09:35:37.764Z,230.63
2018-07-28T09:36:37.813Z,236.25
2018-07-28T09:37:37.888Z,241.88
2018-07-28T09:38:37.993Z,236.25
2018-07-28T09:39:37.913Z,219.38
2018-07-28T09:40:37.872Z,219.38
2018-07-28T09:41:38.022Z,213.75
2018-07-28T09:42:37.909Z,219.38
2018-07-28T09:43:38.005Z,208.13
2018-07-28T09:44:38.010Z,202.50
2018-07-28T09:45:37.983Z,202.50
2018-07-28T09:46:37.981Z,202.50
2018-07-28T09:47:37.996Z,196.88
2018-07-28T09:48:38.022Z,196.88
2018-07-28T09:49:38.577Z,191.25
2018-07-28T09:50:38.086Z,196.88
2018-07-28T09:51:38.441Z,191.25
2018-07-28T09:52:38.122Z,191.25
2018-07-28T09:53:38.095Z,191.25
2018-07-28T09:54:38.178Z,196.88
2018-07-28T09:55:38.193Z,196.88
2018-07-28T09:56:38.159Z,191.25
2018-07-28T09:57:38.175Z,191.25
2018-07-28T09:58:38.184Z,185.63
2018-07-28T09:59:38.283Z,185.63
2018-07-28T10:00:38.293Z,185.63
2018-07-28T10:01:38.240Z,185.63
2018-07-28T10:02:38.255Z,191.25
2018-07-28T10:03:38.283Z,191.25
2018-07-28T10:04:38.434Z,196.88
2018-07-28T10:05:38.512Z,185.63
2018-07-28T10:06:38.376Z,185.63
2018-07-28T10:07:38.400Z,180.00
2018-07-28T10:08:38.365Z,180.00
2018-07-28T10:09:38.391Z,180.00
2018-07-28T10:10:38.401Z,180.00
2018-07-28T10:11:38.483Z,191.25
2018-07-28T10:12:38.475Z,191.25
2018-07-28T10:13:38.474Z,191.25
2018-07-28T10:14:38.539Z,196.88
2018-07-28T10:15:38.522Z,191.25
2018-07-28T10:16:38.574Z,191.25
2018-07-28T10:17:38.834Z,185.63
2018-07-28T10:18:38.544Z,180.00
2018-07-28T10:19:38.676Z,191.25
2018-07-28T10:20:38.712Z,202.50
2018-07-28T10:21:38.684Z,202.50
2018-07-28T10:22:38.638Z,196.88
2018-07-28T10:23:38.839Z,196.88
2018-07-28T10:24:38.735Z,196.88
2018-07-28T10:25:38.677Z,196.88
2018-07-28T10:26:38.761Z,196.88
2018-07-28T10:27:38.677Z,191.25
2018-07-28T10:28:38.736Z,191.25
2018-07-28T10:29:38.799Z,191.25
2018-07-28T10:30:38.778Z,191.25
2018-07-28T10:31:38.751Z,208.13
2018-07-28T10:32:38.773Z,185.63
2018-07-28T10:33:38.853Z,185.63
2018-07-28T10:34:38.858Z,185.63
2018-07-28T10:35:38.876Z,180.00
2018-07-28T10:36:39.034Z,180.00
2018-07-28T10:37:38.875Z,180.00
2018-07-28T10:38:38.978Z,180.00
2018-07-28T10:39:38.952Z,180.00
2018-07-28T10:40:38.974Z,180.00
2018-07-28T10:41:38.926Z,180.00
2018-07-28T10:42:38.951Z,174.38
2018-07-28T10:43:39.010Z,180.00
2018-07-28T10:44:39.015Z,180.00
2018-07-28T10:45:39.130Z,174.38
2018-07-28T10:46:39.048Z,180.00
2018-07-28T10:47:39.072Z,185.63
2018-07-28T10:48:39.105Z,185.63
2018-07-28T10:49:39.105Z,180.00
2018-07-28T10:50:39.156Z,174.38
2018-07-28T10:51:39.197Z,174.38
2018-07-28T10:52:39.184Z,174.38
2018-07-28T10:53:39.280Z,174.38
2018-07-28T10:54:39.159Z,174.38
2018-07-28T10:55:39.187Z,180.00
2018-07-28T10:56:39.265Z,168.75
2018-07-28T10:57:39.220Z,163.13
2018-07-28T10:58:39.240Z,163.13
2018-07-28T10:59:39.327Z,157.50
2018-07-28T11:00:39.357Z,163.13
2018-07-28T11:01:39.360Z,157.50
2018-07-28T11:02:39.336Z,157.50
2018-07-28T11:03:39.385Z,157.50
2018-07-28T11:04:39.353Z,163.13
2018-07-28T11:05:39.376Z,157.50
2018-07-28T11:06:39.479Z,157.50
2018-07-28T11:07:39.501Z,163.13
2018-07-28T11:08:39.453Z,157.50
2018-07-28T11:09:39.468Z,157.50
2018-07-28T11:10:39.472Z,168.75
2018-07-28T11:11:39.468Z,163.13
2018-07-28T11:12:39.535Z,157.50
2018-07-28T11:13:39.566Z,157.50
2018-07-28T11:14:39.596Z,157.50
2018-07-28T11:15:39.650Z,157.50
2018-07-28T11:16:39.713Z,151.88
2018-07-28T11:17:39.608Z,151.88
2018-07-28T11:18:39.688Z,151.88
2018-07-28T11:19:39.645Z,151.88
2018-07-28T11:20:40.066Z,174.38
2018-07-28T11:21:39.664Z,163.13
2018-07-28T11:22:40.030Z,168.75
2018-07-28T11:23:39.735Z,168.75
2018-07-28T11:24:39.782Z,163.13
2018-07-28T11:25:39.751Z,180.00
2018-07-28T11:26:39.916Z,180.00
2018-07-28T11:27:39.827Z,196.88
2018-07-28T11:28:39.819Z,225.00
2018-07-28T11:29:39.859Z,264.38
2018-07-28T11:30:39.819Z,292.50
2018-07-28T11:31:39.961Z,286.88
2018-07-28T11:32:39.855Z,298.13
2018-07-28T11:33:39.944Z,275.63
2018-07-28T11:34:39.982Z,253.13
2018-07-28T11:35:39.927Z,241.88
2018-07-28T11:36:39.988Z,241.88
2018-07-28T11:37:39.972Z,247.50
2018-07-28T11:38:40.201Z,253.13
2018-07-28T11:39:39.986Z,281.25
2018-07-28T11:40:40.007Z,298.13
2018-07-28T11:41:40.097Z,309.38
2018-07-28T11:42:40.026Z,320.63
2018-07-28T11:43:40.069Z,320.63
2018-07-28T11:44:40.126Z,281.25
2018-07-28T11:45:40.331Z,270.00
2018-07-28T11:46:40.111Z,270.00
2018-07-28T11:47:40.140Z,275.63
2018-07-28T11:48:40.213Z,286.88
2018-07-28T11:49:40.243Z,309.38
2018-07-28T11:50:40.221Z,230.63
2018-07-28T11:51:40.324Z,320.63
2018-07-28T11:52:40.247Z,315.00
2018-07-28T11:53:40.268Z,315.00
2018-07-28T11:54:40.323Z,303.75
2018-07-28T11:55:40.299Z,303.75
2018-07-28T11:56:40.345Z,298.13
2018-07-28T11:57:40.317Z,298.13
2018-07-28T11:58:40.353Z,208.13
2018-07-28T11:59:40.382Z,225.00
2018-07-28T12:00:40.370Z,202.50
2018-07-28T12:01:40.435Z,253.13
2018-07-28T12:02:40.395Z,258.75
2018-07-28T12:03:40.432Z,253.13
2018-07-28T12:04:40.485Z,315.00
2018-07-28T12:05:40.455Z,326.25
2018-07-28T12:06:40.562Z,320.63
2018-07-28T12:07:40.494Z,320.63
2018-07-28T12:08:40.504Z,315.00
2018-07-28T12:09:40.532Z,315.00
2018-07-28T12:10:40.544Z,309.38
2018-07-28T12:11:40.563Z,298.13
2018-07-28T12:12:40.773Z,309.38
2018-07-28T12:13:40.576Z,258.75
2018-07-28T12:14:40.634Z,320.63
2018-07-28T12:15:40.631Z,320.63
2018-07-28T12:16:40.697Z,320.63
2018-07-28T12:17:40.713Z,326.25
2018-07-28T12:18:40.689Z,337.50
2018-07-28T12:19:40.845Z,337.50
2018-07-28T12:20:40.730Z,343.13
2018-07-28T12:21:40.763Z,343.13
2018-07-28T12:22:40.784Z,348.75
2018-07-28T12:23:40.805Z,343.13
2018-07-28T12:24:40.855Z,337.50
2018-07-28T12:25:40.830Z,281.25
2018-07-28T12:26:40.858Z,303.75
2018-07-28T12:27:40.855Z,320.63
2018-07-28T12:28:40.872Z,320.63
2018-07-28T12:29:40.913Z,303.75
2018-07-28T12:30:40.916Z,326.25
2018-07-28T12:31:40.952Z,326.25
2018-07-28T12:32:40.962Z,326.25
2018-07-28T12:33:40.941Z,326.25
2018-07-28T12:34:41.060Z,326.25
2018-07-28T12:35:41.031Z,343.13
2018-07-28T12:36:41.047Z,360.00
2018-07-28T12:37:41.019Z,393.75
2018-07-28T12:38:41.052Z,399.38
2018-07-28T12:39:41.089Z,371.25
2018-07-28T12:40:41.074Z,388.13
2018-07-28T12:41:41.169Z,388.13
2018-07-28T12:42:41.109Z,337.50